Time;durP1;ratioP1;P1;durP2;ratioP2;P2;SDS_P1;SDS_P2;PMS_P1;PMS_P2;Temp;Humidity;BMP_temperature;BMP_pressure;BME280_temperature;BME280_humidity;BME280_pressure;Samples;Min_cycle;Max_cycle;Signal;HPM_P1;HPM_P2
2024/02/23 00:01:13;;;;;;;74.22;70.43;;;;;;;;;;5057803;28;20041;-57
2024/02/23 00:03:39;;;;;;;68.40;64.88;;;;;;;;;;5058079;28;20028;-58
2024/02/23 00:06:04;;;;;;;53.58;50.88;;;;;;;;;;5058797;28;20530;-59
2024/02/23 00:08:30;;;;;;;63.15;60.00;;;;;;;;;;5061729;28;20350;-58
2024/02/23 00:10:55;;;;;;;60.78;57.72;;;;;;;;;;5054126;28;20029;-58
2024/02/23 00:13:20;;;;;;;67.72;64.32;;;;;;;;;;5054899;28;20041;-57
2024/02/23 00:15:46;;;;;;;44.50;42.22;;;;;;;;;;5057095;28;20032;-58
2024/02/23 00:18:13;;;;;;;52.22;49.63;;;;;;;;;;5056694;28;20029;-58
2024/02/23 00:20:38;;;;;;;62.72;59.55;;;;;;;;;;5059356;28;20028;-58
2024/02/23 00:23:03;;;;;;;54.85;51.42;;;;;;;;;;5057466;28;21199;-58
2024/02/23 00:25:29;;;;;;;38.58;36.58;;;;;;;;;;5066132;28;20035;-59
2024/02/23 00:27:54;;;;;;;43.33;41.13;;;;;;;;;;5064386;28;20047;-58
2024/02/23 00:30:19;;;;;;;40.85;38.75;;;;;;;;;;5067092;28;20040;-58
2024/02/23 00:32:45;;;;;;;35.85;34.00;;;;;;;;;;5060689;28;20036;-57
2024/02/23 00:35:10;;;;;;;38.72;36.72;;;;;;;;;;5064551;28;20041;-58
2024/02/23 00:37:35;;;;;;;39.55;37.42;;;;;;;;;;5061598;28;20047;-59
2024/02/23 00:40:04;;;;;;;34.28;32.47;;;;;;;;;;5062444;28;20131;-63
2024/02/23 00:42:30;;;;;;;39.03;37.03;;;;;;;;;;5061796;28;20056;-63
2024/02/23 00:44:55;;;;;;;43.97;41.75;;;;;;;;;;5061359;28;20033;-57
2024/02/23 00:47:20;;;;;;;53.85;51.15;;;;;;;;;;5066243;28;20024;-58
2024/02/23 00:49:46;;;;;;;43.83;41.63;;;;;;;;;;5062717;28;20039;-58
2024/02/23 00:52:11;;;;;;;53.78;50.78;;;;;;;;;;5067365;28;20028;-58
2024/02/23 00:54:36;;;;;;;43.10;40.90;;;;;;;;;;5062235;28;20028;-57
2024/02/23 00:57:02;;;;;;;53.47;50.78;;;;;;;;;;5062651;28;20036;-58
2024/02/23 00:59:27;;;;;;;51.63;49.03;;;;;;;;;;5063127;28;20462;-58
2024/02/23 01:01:53;;;;;;;52.88;50.22;;;;;;;;;;5057117;28;20522;-58
2024/02/23 01:04:19;;;;;;;57.65;54.75;;;;;;;;;;5062667;28;20151;-58
2024/02/23 01:06:44;;;;;;;51.08;48.47;;;;;;;;;;5064244;28;20107;-56
2024/02/23 01:09:09;;;;;;;49.72;47.22;;;;;;;;;;5061565;28;20119;-58
2024/02/23 01:11:34;;;;;;;41.40;39.25;;;;;;;;;;5060555;28;20140;-59
2024/02/23 01:14:00;;;;;;;57.35;54.45;;;;;;;;;;5059380;28;20056;-58
2024/02/23 01:16:25;;;;;;;44.10;41.88;;;;;;;;;;5061896;28;20065;-57
2024/02/23 01:18:50;;;;;;;43.58;41.38;;;;;;;;;;5059444;28;20056;-56
2024/02/23 01:21:16;;;;;;;42.42;40.28;;;;;;;;;;5061249;28;20117;-53
2024/02/23 01:23:41;;;;;;;40.55;38.47;;;;;;;;;;5063104;28;20180;-55
2024/02/23 01:26:07;;;;;;;46.67;44.30;;;;;;;;;;5058942;28;20631;-55
2024/02/23 01:28:32;;;;;;;52.72;50.08;;;;;;;;;;5061390;28;20028;-53
2024/02/23 01:30:58;;;;;;;54.70;51.92;;;;;;;;;;5058703;28;20438;-54
2024/02/23 01:33:23;;;;;;;53.08;50.38;;;;;;;;;;5061435;28;20083;-55
2024/02/23 01:35:49;;;;;;;50.00;47.38;;;;;;;;;;5061340;28;20036;-53
2024/02/23 01:38:20;;;;;;;48.15;45.72;;;;;;;;;;5063458;28;20181;-54
2024/02/23 01:40:47;;;;;;;43.58;41.38;;;;;;;;;;5065973;28;20458;-55
2024/02/23 01:43:13;;;;;;;49.80;47.30;;;;;;;;;;5060063;28;20056;-55
2024/02/23 01:45:39;;;;;;;46.70;44.35;;;;;;;;;;5061593;28;20037;-54
2024/02/23 01:48:06;;;;;;;43.72;41.53;;;;;;;;;;5060810;28;20037;-55
2024/02/23 01:50:31;;;;;;;47.53;44.83;;;;;;;;;;5062202;28;20044;-55
2024/02/23 01:53:01;;;;;;;47.50;45.10;;;;;;;;;;5060544;28;20037;-56
2024/02/23 01:55:27;;;;;;;44.17;41.95;;;;;;;;;;5063129;28;20041;-55
2024/02/23 01:57:53;;;;;;;44.58;42.30;;;;;;;;;;5062571;28;20129;-54
2024/02/23 02:00:18;;;;;;;43.95;41.72;;;;;;;;;;5065903;28;20056;-56
2024/02/23 02:02:44;;;;;;;42.70;40.50;;;;;;;;;;5059364;28;20037;-54
2024/02/23 02:05:10;;;;;;;45.72;43.42;;;;;;;;;;5066611;28;20150;-56
2024/02/23 02:07:36;;;;;;;45.05;42.78;;;;;;;;;;5063686;28;20024;-56
2024/02/23 02:10:03;;;;;;;42.55;40.40;;;;;;;;;;5063621;28;20059;-55
2024/02/23 02:12:29;;;;;;;44.53;42.28;;;;;;;;;;5063076;28;20025;-54
2024/02/23 02:14:55;;;;;;;45.70;43.40;;;;;;;;;;5061240;28;20036;-56
2024/02/23 02:17:21;;;;;;;40.72;38.55;;;;;;;;;;5066144;28;20488;-54
2024/02/23 02:19:48;;;;;;;48.35;45.85;;;;;;;;;;5063769;28;20032;-55
2024/02/23 02:22:13;;;;;;;41.00;38.92;;;;;;;;;;5061027;28;20029;-56
2024/02/23 02:24:40;;;;;;;44.53;42.22;;;;;;;;;;5061899;28;20028;-56
2024/02/23 02:27:06;;;;;;;43.45;41.25;;;;;;;;;;5061047;28;20047;-53
2024/02/23 02:29:32;;;;;;;44.80;42.55;;;;;;;;;;5060495;28;20048;-56
2024/02/23 02:31:57;;;;;;;45.40;43.10;;;;;;;;;;5060947;28;20045;-56
2024/02/23 02:34:22;;;;;;;52.10;49.50;;;;;;;;;;5062717;28;20051;-56
2024/02/23 02:36:48;;;;;;;39.95;37.85;;;;;;;;;;5059802;28;20032;-56
2024/02/23 02:39:14;;;;;;;37.97;36.05;;;;;;;;;;5059232;28;20553;-56
2024/02/23 02:41:39;;;;;;;34.38;32.58;;;;;;;;;;5064941;28;20048;-57
2024/02/23 02:44:05;;;;;;;33.83;32.13;;;;;;;;;;5060265;28;20043;-57
2024/02/23 02:46:30;;;;;;;34.03;32.15;;;;;;;;;;5060554;28;20025;-56
2024/02/23 02:48:55;;;;;;;35.45;33.65;;;;;;;;;;5065663;28;20493;-57
2024/02/23 02:51:21;;;;;;;37.42;35.53;;;;;;;;;;5063898;28;20068;-57
2024/02/23 02:53:46;;;;;;;37.05;35.15;;;;;;;;;;5061564;28;20119;-56
2024/02/23 02:56:11;;;;;;;33.33;31.63;;;;;;;;;;5062194;28;20394;-57
2024/02/23 02:58:37;;;;;;;35.55;33.72;;;;;;;;;;5061285;28;20052;-54
2024/02/23 03:01:02;;;;;;;41.40;39.30;;;;;;;;;;5058949;28;20126;-56
2024/02/23 03:03:28;;;;;;;36.88;35.00;;;;;;;;;;5060021;28;20527;-53
2024/02/23 03:05:53;;;;;;;35.05;33.25;;;;;;;;;;5062769;28;20055;-56
2024/02/23 03:08:18;;;;;;;44.58;42.33;;;;;;;;;;5063944;28;20041;-53
2024/02/23 03:10:43;;;;;;;45.33;43.03;;;;;;;;;;5062241;28;20032;-55
2024/02/23 03:13:09;;;;;;;45.67;43.38;;;;;;;;;;5062656;28;20094;-55
2024/02/23 03:15:34;;;;;;;44.00;41.78;;;;;;;;;;5064495;28;20494;-53
2024/02/23 03:18:01;;;;;;;45.50;43.20;;;;;;;;;;5065801;28;20100;-55
2024/02/23 03:20:26;;;;;;;40.75;38.67;;;;;;;;;;5062812;28;20139;-53
2024/02/23 03:22:52;;;;;;;42.97;40.67;;;;;;;;;;5058444;28;20111;-54
2024/02/23 03:25:18;;;;;;;44.63;42.33;;;;;;;;;;5061247;28;20037;-56
2024/02/23 03:27:43;;;;;;;37.60;35.70;;;;;;;;;;5062328;28;20370;-51
2024/02/23 03:30:09;;;;;;;42.90;40.72;;;;;;;;;;5059500;28;20037;-54
2024/02/23 03:32:38;;;;;;;40.53;38.42;;;;;;;;;;5057066;28;20028;-51
2024/02/23 03:35:05;;;;;;;45.63;43.33;;;;;;;;;;5061758;28;20036;-55
2024/02/23 03:37:30;;;;;;;44.55;42.25;;;;;;;;;;5061438;28;20134;-57
2024/02/23 03:39:56;;;;;;;47.70;45.30;;;;;;;;;;5063902;28;20153;-55
2024/02/23 03:42:21;;;;;;;49.38;46.88;;;;;;;;;;5059419;28;20519;-56
2024/02/23 03:44:46;;;;;;;47.00;44.60;;;;;;;;;;5062266;28;20041;-56
2024/02/23 03:47:12;;;;;;;45.25;42.90;;;;;;;;;;5060828;28;20058;-56
2024/02/23 03:49:38;;;;;;;48.00;45.60;;;;;;;;;;5061595;28;20050;-55
2024/02/23 03:52:04;;;;;;;46.47;44.10;;;;;;;;;;5062443;28;20102;-56
2024/02/23 03:54:31;;;;;;;45.22;42.92;;;;;;;;;;5062028;28;20050;-53
2024/02/23 03:56:56;;;;;;;49.65;47.05;;;;;;;;;;5062555;28;20533;-55
2024/02/23 03:59:21;;;;;;;49.47;46.78;;;;;;;;;;5060767;28;20040;-56
2024/02/23 04:01:47;;;;;;;48.22;45.72;;;;;;;;;;5062235;28;20040;-56
2024/02/23 04:04:12;;;;;;;46.67;44.28;;;;;;;;;;5059550;28;20033;-56
2024/02/23 04:06:37;;;;;;;47.92;45.50;;;;;;;;;;5062124;28;20028;-56
2024/02/23 04:09:06;;;;;;;46.75;44.35;;;;;;;;;;5061347;28;20031;-56
2024/02/23 04:11:31;;;;;;;47.45;45.05;;;;;;;;;;5061339;28;20087;-56
2024/02/23 04:13:57;;;;;;;47.78;45.38;;;;;;;;;;5059740;28;20948;-55
2024/02/23 04:16:25;;;;;;;49.70;47.20;;;;;;;;;;5063170;28;20058;-57
2024/02/23 04:18:51;;;;;;;49.60;47.00;;;;;;;;;;5060039;28;20037;-55
2024/02/23 04:21:16;;;;;;;47.65;45.25;;;;;;;;;;5062657;28;20043;-56
2024/02/23 04:23:43;;;;;;;49.03;45.85;;;;;;;;;;5060206;28;20033;-56
2024/02/23 04:26:08;;;;;;;49.38;46.78;;;;;;;;;;5057604;28;20043;-56
2024/02/23 04:28:34;;;;;;;47.83;45.42;;;;;;;;;;5064029;28;20040;-55
2024/02/23 04:31:00;;;;;;;47.92;45.53;;;;;;;;;;5062929;28;20046;-56
2024/02/23 04:33:26;;;;;;;45.47;43.17;;;;;;;;;;5061051;28;20024;-56
2024/02/23 04:35:51;;;;;;;51.03;48.42;;;;;;;;;;5059859;28;20074;-54
2024/02/23 04:38:16;;;;;;;45.53;43.22;;;;;;;;;;5060186;28;20116;-56
2024/02/23 04:40:42;;;;;;;49.03;46.55;;;;;;;;;;5060796;28;20035;-55
2024/02/23 04:43:07;;;;;;;49.70;47.20;;;;;;;;;;5061500;28;20056;-56
2024/02/23 04:45:32;;;;;;;51.40;48.80;;;;;;;;;;5057604;28;21018;-54
2024/02/23 04:47:58;;;;;;;49.17;46.67;;;;;;;;;;5061844;28;20037;-56
2024/02/23 04:50:23;;;;;;;42.78;40.58;;;;;;;;;;5060424;28;20048;-55
2024/02/23 04:52:50;;;;;;;45.13;42.83;;;;;;;;;;5061829;28;20040;-55
2024/02/23 04:55:15;;;;;;;47.45;44.97;;;;;;;;;;5061716;28;20090;-56
2024/02/23 04:57:40;;;;;;;44.15;41.75;;;;;;;;;;5063437;28;20048;-56
2024/02/23 05:00:07;;;;;;;44.85;42.17;;;;;;;;;;5061459;28;20085;-53
2024/02/23 05:02:35;;;;;;;45.13;42.83;;;;;;;;;;5060656;28;20038;-56
2024/02/23 05:05:04;;;;;;;48.35;45.78;;;;;;;;;;5064750;28;20095;-54
2024/02/23 05:07:33;;;;;;;45.95;43.55;;;;;;;;;;5062415;28;20021;-56
2024/02/23 05:09:58;;;;;;;44.65;42.35;;;;;;;;;;5062891;28;20040;-56
2024/02/23 05:12:23;;;;;;;43.05;40.75;;;;;;;;;;5066173;28;20036;-53
2024/02/23 05:14:49;;;;;;;43.40;41.20;;;;;;;;;;5061450;28;20033;-56
2024/02/23 05:17:14;;;;;;;45.67;43.38;;;;;;;;;;5062656;28;20042;-55
2024/02/23 05:19:40;;;;;;;44.15;41.85;;;;;;;;;;5064347;28;20043;-57
2024/02/23 05:22:05;;;;;;;40.90;38.80;;;;;;;;;;5063541;28;20029;-56
2024/02/23 05:24:30;;;;;;;43.17;40.85;;;;;;;;;;5066095;28;20033;-56
2024/02/23 05:26:57;;;;;;;44.88;42.58;;;;;;;;;;5066068;28;20032;-56
2024/02/23 05:29:23;;;;;;;42.72;40.30;;;;;;;;;;5060710;28;20047;-56
2024/02/23 05:31:51;;;;;;;42.50;40.33;;;;;;;;;;5063028;28;20029;-56
2024/02/23 05:34:16;;;;;;;42.60;40.40;;;;;;;;;;5060779;28;20032;-56
2024/02/23 05:36:42;;;;;;;42.38;40.22;;;;;;;;;;5063771;28;20676;-56
2024/02/23 05:39:09;;;;;;;40.03;38.00;;;;;;;;;;5065493;28;20036;-55
2024/02/23 05:41:35;;;;;;;42.47;40.15;;;;;;;;;;5067252;28;20079;-56
2024/02/23 05:44:00;;;;;;;40.55;38.45;;;;;;;;;;5065417;28;20133;-56
2024/02/23 05:46:26;;;;;;;38.40;36.42;;;;;;;;;;5061826;28;20091;-55
2024/02/23 05:48:51;;;;;;;35.53;33.72;;;;;;;;;;5063836;28;20049;-53
2024/02/23 05:51:16;;;;;;;35.78;33.95;;;;;;;;;;5065814;28;20067;-55
2024/02/23 05:53:42;;;;;;;33.42;31.70;;;;;;;;;;5066534;28;20051;-56
2024/02/23 05:56:07;;;;;;;31.60;29.98;;;;;;;;;;5062591;28;20047;-57
2024/02/23 05:58:33;;;;;;;31.25;29.65;;;;;;;;;;5066921;28;20454;-56
2024/02/23 06:00:58;;;;;;;27.25;25.83;;;;;;;;;;5061178;28;20036;-56
2024/02/23 06:03:23;;;;;;;26.88;25.38;;;;;;;;;;5066817;28;20051;-54
2024/02/23 06:05:49;;;;;;;25.08;23.77;;;;;;;;;;5062315;28;20040;-57
2024/02/23 06:08:14;;;;;;;26.48;25.08;;;;;;;;;;5058475;28;20038;-56
2024/02/23 06:10:39;;;;;;;24.88;23.58;;;;;;;;;;5063097;28;20039;-56
2024/02/23 06:13:05;;;;;;;26.33;24.92;;;;;;;;;;5063990;28;20029;-52
2024/02/23 06:15:30;;;;;;;26.60;25.20;;;;;;;;;;5064632;28;20043;-55
2024/02/23 06:17:55;;;;;;;27.52;26.10;;;;;;;;;;5063522;28;20032;-55
2024/02/23 06:20:21;;;;;;;27.75;26.33;;;;;;;;;;5062081;28;20048;-55
2024/02/23 06:22:46;;;;;;;27.00;25.60;;;;;;;;;;5062244;28;20031;-55
2024/02/23 06:25:12;;;;;;;31.83;30.17;;;;;;;;;;5065312;28;20060;-55
2024/02/23 06:27:37;;;;;;;28.00;26.50;;;;;;;;;;5065726;28;20140;-55
2024/02/23 06:30:03;;;;;;;33.03;31.33;;;;;;;;;;5063239;28;20109;-55
2024/02/23 06:32:29;;;;;;;36.55;34.65;;;;;;;;;;5064828;28;20040;-56
2024/02/23 06:34:55;;;;;;;36.50;34.60;;;;;;;;;;5061562;28;20032;-54
2024/02/23 06:37:20;;;;;;;35.90;34.08;;;;;;;;;;5063112;28;20390;-56
2024/02/23 06:39:49;;;;;;;39.53;37.53;;;;;;;;;;5061609;28;20059;-56
2024/02/23 06:42:15;;;;;;;41.72;39.63;;;;;;;;;;5062885;28;20029;-54
2024/02/23 06:44:40;;;;;;;43.30;41.10;;;;;;;;;;5064069;28;20101;-56
2024/02/23 06:47:06;;;;;;;41.40;39.30;;;;;;;;;;5062692;28;20047;-55
2024/02/23 06:49:32;;;;;;;48.80;46.30;;;;;;;;;;5060034;28;20510;-54
2024/02/23 06:51:57;;;;;;;45.22;42.92;;;;;;;;;;5062374;28;20090;-55
2024/02/23 06:54:22;;;;;;;39.92;37.90;;;;;;;;;;5060488;28;20040;-56
2024/02/23 06:56:48;;;;;;;45.17;42.88;;;;;;;;;;5062799;28;20246;-53
2024/02/23 06:59:13;;;;;;;46.83;44.45;;;;;;;;;;5062967;28;20035;-56
2024/02/23 07:01:52;;;;;;;52.70;49.70;;;;;;;;;;5062680;28;20099;-55
2024/02/23 07:04:17;;;;;;;53.00;50.33;;;;;;;;;;5062464;28;20033;-54
2024/02/23 07:06:43;;;;;;;55.33;52.53;;;;;;;;;;5059787;28;20185;-55
2024/02/23 07:09:09;;;;;;;53.38;50.67;;;;;;;;;;5062538;28;20390;-55
2024/02/23 07:11:34;;;;;;;54.47;51.63;;;;;;;;;;5064599;28;20055;-54
2024/02/23 07:14:00;;;;;;;47.25;44.85;;;;;;;;;;5064615;28;20040;-54
2024/02/23 07:16:25;;;;;;;46.65;44.28;;;;;;;;;;5061189;28;20040;-54
2024/02/23 07:18:50;;;;;;;49.22;46.53;;;;;;;;;;5065889;28;20039;-56
2024/02/23 07:21:19;;;;;;;45.13;42.80;;;;;;;;;;5060749;28;20344;-54
2024/02/23 07:23:44;;;;;;;42.35;40.00;;;;;;;;;;5063885;28;20028;-53
2024/02/23 07:26:10;;;;;;;35.65;33.85;;;;;;;;;;5060975;28;20446;-54
2024/02/23 07:28:35;;;;;;;33.42;31.52;;;;;;;;;;5061609;28;20043;-55
2024/02/23 07:31:00;;;;;;;33.78;32.05;;;;;;;;;;5058302;28;20032;-55
2024/02/23 07:33:26;;;;;;;32.33;30.65;;;;;;;;;;5065945;28;20582;-55
2024/02/23 07:35:51;;;;;;;31.73;30.08;;;;;;;;;;5061231;28;20680;-53
2024/02/23 07:38:17;;;;;;;34.33;32.53;;;;;;;;;;5063094;28;20040;-56
2024/02/23 07:40:44;;;;;;;34.85;33.05;;;;;;;;;;5062953;28;20369;-57
2024/02/23 07:43:11;;;;;;;32.65;30.95;;;;;;;;;;5063098;28;20090;-55
2024/02/23 07:45:36;;;;;;;31.02;29.42;;;;;;;;;;5065673;28;20032;-53
2024/02/23 07:48:02;;;;;;;29.60;28.10;;;;;;;;;;5065554;28;20598;-55
2024/02/23 07:50:27;;;;;;;29.45;27.95;;;;;;;;;;5066323;28;20036;-54
2024/02/23 07:52:53;;;;;;;28.02;26.55;;;;;;;;;;5064928;28;20043;-55
2024/02/23 07:55:18;;;;;;;32.75;31.00;;;;;;;;;;5063078;28;20037;-55
2024/02/23 07:57:44;;;;;;;26.25;24.85;;;;;;;;;;5063203;28;20028;-56
2024/02/23 08:00:09;;;;;;;29.70;28.00;;;;;;;;;;5061024;28;20381;-59
2024/02/23 08:02:35;;;;;;;31.50;29.90;;;;;;;;;;5059805;28;20042;-57
2024/02/23 08:05:01;;;;;;;31.52;29.85;;;;;;;;;;5062661;28;20106;-56
2024/02/23 08:07:28;;;;;;;48.42;46.00;;;;;;;;;;5062255;28;20040;-58
2024/02/23 08:09:53;;;;;;;39.25;37.25;;;;;;;;;;5062716;28;20037;-55
2024/02/23 08:12:19;;;;;;;30.40;28.80;;;;;;;;;;5060651;28;20106;-55
2024/02/23 08:14:45;;;;;;;33.58;31.83;;;;;;;;;;5062781;28;20036;-53
2024/02/23 08:17:11;;;;;;;29.10;27.60;;;;;;;;;;5062621;28;20028;-61
2024/02/23 08:19:36;;;;;;;37.92;36.00;;;;;;;;;;5063024;28;20043;-62
2024/02/23 08:22:01;;;;;;;31.67;29.90;;;;;;;;;;5061358;28;20047;-62
2024/02/23 08:24:27;;;;;;;29.73;27.92;;;;;;;;;;5065126;28;20094;-61
2024/02/23 08:26:53;;;;;;;29.08;27.58;;;;;;;;;;5062270;28;20033;-62
2024/02/23 08:29:19;;;;;;;30.27;28.67;;;;;;;;;;5063391;28;20029;-62
2024/02/23 08:31:44;;;;;;;36.78;34.88;;;;;;;;;;5062305;28;20075;-62
2024/02/23 08:34:10;;;;;;;30.17;28.58;;;;;;;;;;5060538;28;20043;-60
2024/02/23 08:36:35;;;;;;;30.63;29.02;;;;;;;;;;5065801;28;20025;-61
2024/02/23 08:39:00;;;;;;;26.77;25.38;;;;;;;;;;5061819;28;20035;-61
2024/02/23 08:41:26;;;;;;;34.92;33.13;;;;;;;;;;5063053;28;20033;-57
2024/02/23 08:43:51;;;;;;;37.35;35.45;;;;;;;;;;5063573;28;20459;-55
2024/02/23 08:46:16;;;;;;;32.28;30.35;;;;;;;;;;5063807;28;20029;-54
2024/02/23 08:48:42;;;;;;;29.50;27.90;;;;;;;;;;5065914;28;20040;-54
2024/02/23 08:51:07;;;;;;;32.97;31.17;;;;;;;;;;5066847;28;20032;-57
2024/02/23 08:53:32;;;;;;;46.63;43.47;;;;;;;;;;5066931;28;20040;-56
2024/02/23 08:55:58;;;;;;;38.67;36.70;;;;;;;;;;5067968;28;20045;-55
2024/02/23 08:58:23;;;;;;;50.88;48.28;;;;;;;;;;5066985;28;20575;-61
2024/02/23 09:00:49;;;;;;;47.45;44.78;;;;;;;;;;5062603;28;20043;-61
2024/02/23 09:03:14;;;;;;;49.50;43.38;;;;;;;;;;5068349;28;20710;-55
2024/02/23 09:05:40;;;;;;;39.80;37.70;;;;;;;;;;5065861;28;20094;-56
2024/02/23 09:08:06;;;;;;;65.47;62.00;;;;;;;;;;5067213;28;20048;-61
2024/02/23 09:10:31;;;;;;;40.50;38.42;;;;;;;;;;5067978;28;20094;-60
2024/02/23 09:12:57;;;;;;;47.28;44.88;;;;;;;;;;5064435;28;20052;-61
2024/02/23 09:15:22;;;;;;;63.63;60.38;;;;;;;;;;5070852;28;20131;-61
2024/02/23 09:17:47;;;;;;;81.13;77.05;;;;;;;;;;5061976;28;20028;-62
2024/02/23 09:20:13;;;;;;;54.17;51.00;;;;;;;;;;5070463;28;20115;-61
2024/02/23 09:22:39;;;;;;;56.55;53.67;;;;;;;;;;5063136;28;20541;-60
2024/02/23 09:25:06;;;;;;;67.35;63.85;;;;;;;;;;5066444;28;20029;-56
2024/02/23 09:27:32;;;;;;;75.25;71.50;;;;;;;;;;5063964;28;20033;-55
2024/02/23 09:29:58;;;;;;;74.68;70.97;;;;;;;;;;5066060;28;20354;-61
2024/02/23 09:32:23;;;;;;;59.22;56.13;;;;;;;;;;5063901;28;20488;-61
2024/02/23 09:34:49;;;;;;;59.47;56.47;;;;;;;;;;5062907;28;20044;-62
2024/02/23 09:37:14;;;;;;;46.67;44.28;;;;;;;;;;5068658;28;20042;-57
2024/02/23 09:39:39;;;;;;;46.78;44.40;;;;;;;;;;5064967;28;20040;-62
2024/02/23 09:42:10;;;;;;;66.25;62.95;;;;;;;;;;5065032;28;20478;-62
2024/02/23 09:44:36;;;;;;;73.90;70.20;;;;;;;;;;5065693;28;20032;-57
2024/02/23 09:47:10;;;;;;;80.15;76.10;;;;;;;;;;5063685;28;20380;-57
2024/02/23 09:49:42;;;;;;;70.25;66.75;;;;;;;;;;5066125;28;20056;-55
2024/02/23 09:52:11;;;;;;;75.13;71.35;;;;;;;;;;5068939;28;20067;-57
2024/02/23 09:54:38;;;;;;;98.45;93.60;;;;;;;;;;5063307;28;20398;-62
2024/02/23 09:57:07;;;;;;;96.97;92.18;;;;;;;;;;5068910;28;20032;-55
2024/02/23 09:59:34;;;;;;;98.80;93.93;;;;;;;;;;5064343;28;20082;-63
2024/02/23 10:01:59;;;;;;;100.18;95.25;;;;;;;;;;5067408;28;20091;-57
2024/02/23 10:04:29;;;;;;;116.70;110.90;;;;;;;;;;5063616;28;20954;-61
2024/02/23 10:06:54;;;;;;;117.18;111.40;;;;;;;;;;5064812;28;20047;-59
2024/02/23 10:09:21;;;;;;;108.78;103.38;;;;;;;;;;5066181;28;20468;-57
2024/02/23 10:11:52;;;;;;;128.88;122.53;;;;;;;;;;5065062;28;20423;-57
2024/02/23 10:14:17;;;;;;;111.43;105.93;;;;;;;;;;5067433;28;20410;-57
2024/02/23 10:16:42;;;;;;;120.30;114.38;;;;;;;;;;5064548;28;20879;-62
2024/02/23 10:19:08;;;;;;;122.68;116.60;;;;;;;;;;5063853;28;20098;-61
2024/02/23 10:21:34;;;;;;;100.15;94.95;;;;;;;;;;5065875;28;20051;-61
2024/02/23 10:23:59;;;;;;;124.13;117.75;;;;;;;;;;5065377;28;20469;-62
2024/02/23 10:26:26;;;;;;;123.88;117.75;;;;;;;;;;5065113;28;20040;-62
2024/02/23 10:28:52;;;;;;;124.03;117.90;;;;;;;;;;5063732;28;20109;-62
2024/02/23 10:31:17;;;;;;;120.22;113.82;;;;;;;;;;5064627;28;20035;-58
2024/02/23 10:33:44;;;;;;;80.68;76.68;;;;;;;;;;5063992;28;20039;-62
2024/02/23 10:36:11;;;;;;;109.90;104.45;;;;;;;;;;5067313;28;20048;-62
2024/02/23 10:38:41;;;;;;;125.93;118.20;;;;;;;;;;5068355;28;20111;-62
2024/02/23 10:41:08;;;;;;;80.25;76.25;;;;;;;;;;5067228;28;20386;-63
2024/02/23 10:43:42;;;;;;;141.15;133.45;;;;;;;;;;5067655;28;20036;-63
2024/02/23 10:46:12;;;;;;;74.63;70.93;;;;;;;;;;5063400;28;20059;-63
2024/02/23 10:48:40;;;;;;;52.15;49.45;;;;;;;;;;5065328;28;20422;-63
2024/02/23 10:51:07;;;;;;;89.32;84.82;;;;;;;;;;5063149;28;20556;-63
2024/02/23 10:53:34;;;;;;;96.80;92.00;;;;;;;;;;5062920;28;20379;-63
2024/02/23 10:56:00;;;;;;;124.97;118.75;;;;;;;;;;5061697;28;20033;-63
2024/02/23 10:58:26;;;;;;;140.85;133.77;;;;;;;;;;5068425;28;20579;-63
2024/02/23 11:00:57;;;;;;;134.02;126.65;;;;;;;;;;5062092;28;20072;-63
2024/02/23 11:03:23;;;;;;;141.02;134.02;;;;;;;;;;5065001;28;20385;-56
2024/02/23 11:05:49;;;;;;;136.93;130.15;;;;;;;;;;5061782;28;20032;-62
2024/02/23 11:08:18;;;;;;;123.10;116.82;;;;;;;;;;5065500;28;20128;-62
2024/02/23 11:10:53;;;;;;;116.18;110.35;;;;;;;;;;5063194;28;20025;-55
2024/02/23 11:13:31;;;;;;;121.30;115.20;;;;;;;;;;5062687;28;20029;-56
2024/02/23 11:16:02;;;;;;;125.13;118.93;;;;;;;;;;5062636;28;20028;-62
2024/02/23 11:18:27;;;;;;;95.93;91.18;;;;;;;;;;5064530;28;20094;-56
2024/02/23 11:20:59;;;;;;;47.40;45.00;;;;;;;;;;5066346;28;20044;-57
2024/02/23 11:23:25;;;;;;;40.97;38.85;;;;;;;;;;5063194;28;20114;-62
2024/02/23 11:26:05;;;;;;;34.53;32.72;;;;;;;;;;5063252;28;20037;-62
2024/02/23 11:28:31;;;;;;;29.88;28.33;;;;;;;;;;5063052;28;20111;-61
2024/02/23 11:30:57;;;;;;;36.67;34.67;;;;;;;;;;5061136;28;20380;-56
2024/02/23 11:33:29;;;;;;;46.97;44.60;;;;;;;;;;5066842;28;20436;-61
2024/02/23 11:36:05;;;;;;;46.08;43.65;;;;;;;;;;5064271;28;20040;-56
2024/02/23 11:38:32;;;;;;;37.28;35.33;;;;;;;;;;5065024;28;20047;-61
2024/02/23 11:40:57;;;;;;;28.40;26.92;;;;;;;;;;5065495;28;20040;-62
2024/02/23 11:43:23;;;;;;;32.38;30.70;;;;;;;;;;5063971;28;20102;-62
2024/02/23 11:45:48;;;;;;;64.57;61.25;;;;;;;;;;5062513;28;20032;-58
2024/02/23 11:48:14;;;;;;;71.47;67.82;;;;;;;;;;5061348;28;20033;-61
2024/02/23 11:50:39;;;;;;;38.70;36.72;;;;;;;;;;5063387;28;20020;-56
2024/02/23 11:53:05;;;;;;;39.00;36.75;;;;;;;;;;5063132;28;20352;-57
2024/02/23 11:55:30;;;;;;;32.90;31.20;;;;;;;;;;5063818;28;20139;-62
2024/02/23 11:57:56;;;;;;;34.53;32.72;;;;;;;;;;5061733;28;20055;-61
2024/02/23 12:00:23;;;;;;;64.57;61.35;;;;;;;;;;5065749;28;20040;-57
2024/02/23 12:02:50;;;;;;;50.13;47.33;;;;;;;;;;5062589;28;20093;-57
2024/02/23 12:05:16;;;;;;;95.38;90.53;;;;;;;;;;5062741;28;20259;-62
2024/02/23 12:07:41;;;;;;;106.22;100.88;;;;;;;;;;5064020;28;20031;-62
2024/02/23 12:10:08;;;;;;;108.25;102.90;;;;;;;;;;5059076;28;20044;-62
2024/02/23 12:12:33;;;;;;;94.43;89.75;;;;;;;;;;5063747;28;20028;-61
2024/02/23 12:14:58;;;;;;;122.32;116.28;;;;;;;;;;5063551;28;20350;-61
2024/02/23 12:17:26;;;;;;;82.70;78.55;;;;;;;;;;5060637;28;20028;-57
2024/02/23 12:20:01;;;;;;;120.90;114.90;;;;;;;;;;5062246;28;20048;-57
2024/02/23 12:22:26;;;;;;;120.05;114.07;;;;;;;;;;5062686;28;20052;-57
2024/02/23 12:24:52;;;;;;;122.28;116.20;;;;;;;;;;5063265;28;20353;-57
2024/02/23 12:27:18;;;;;;;123.00;116.95;;;;;;;;;;5063012;28;20103;-60
2024/02/23 12:29:53;;;;;;;110.28;104.78;;;;;;;;;;5060959;28;20031;-59
2024/02/23 12:32:20;;;;;;;114.18;108.43;;;;;;;;;;5061379;28;20529;-61
2024/02/23 12:34:46;;;;;;;101.13;96.13;;;;;;;;;;5062517;28;20048;-61
2024/02/23 12:37:14;;;;;;;119.78;113.85;;;;;;;;;;5058789;28;20093;-61
2024/02/23 12:39:40;;;;;;;114.30;108.30;;;;;;;;;;5060957;28;20060;-60
2024/02/23 12:42:05;;;;;;;111.15;105.18;;;;;;;;;;5061192;28;20149;-61
2024/02/23 12:44:30;;;;;;;106.47;101.22;;;;;;;;;;5063926;28;20523;-57
2024/02/23 12:46:56;;;;;;;120.18;114.22;;;;;;;;;;5059323;28;20310;-55
2024/02/23 12:49:21;;;;;;;111.15;105.50;;;;;;;;;;5062311;28;20025;-56
2024/02/23 12:51:46;;;;;;;108.07;102.72;;;;;;;;;;5061200;28;20045;-57
2024/02/23 12:54:12;;;;;;;114.20;108.55;;;;;;;;;;5060537;28;20033;-56
2024/02/23 12:56:37;;;;;;;131.73;125.05;;;;;;;;;;5059960;28;20088;-56
2024/02/23 12:59:02;;;;;;;112.30;106.72;;;;;;;;;;5059444;28;20052;-56
2024/02/23 13:01:28;;;;;;;98.93;93.95;;;;;;;;;;5065321;28;20319;-57
2024/02/23 13:03:53;;;;;;;108.57;103.20;;;;;;;;;;5060548;28;20065;-56
2024/02/23 13:06:18;;;;;;;119.38;113.40;;;;;;;;;;5061797;28;20575;-56
2024/02/23 13:08:44;;;;;;;135.02;128.35;;;;;;;;;;5065223;28;20044;-55
2024/02/23 13:11:09;;;;;;;128.18;121.85;;;;;;;;;;5064133;28;20032;-60
2024/02/23 13:13:34;;;;;;;121.07;115.05;;;;;;;;;;5067968;28;20438;-56
2024/02/23 13:16:00;;;;;;;84.30;80.13;;;;;;;;;;5060456;28;20041;-61
2024/02/23 13:18:25;;;;;;;77.85;73.97;;;;;;;;;;5068810;28;20039;-56
2024/02/23 13:20:51;;;;;;;70.50;66.93;;;;;;;;;;5063214;28;20462;-57
2024/02/23 13:23:16;;;;;;;44.17;41.92;;;;;;;;;;5065789;28;20043;-58
2024/02/23 13:25:42;;;;;;;35.80;33.97;;;;;;;;;;5062332;28;20043;-57
2024/02/23 13:28:08;;;;;;;49.67;47.15;;;;;;;;;;5064007;28;20117;-62
2024/02/23 13:30:34;;;;;;;38.83;36.78;;;;;;;;;;5066211;28;20043;-62
2024/02/23 13:33:00;;;;;;;50.78;48.10;;;;;;;;;;5065511;28;20059;-61
2024/02/23 13:35:25;;;;;;;60.90;57.60;;;;;;;;;;5066604;28;20530;-57
2024/02/23 13:37:51;;;;;;;108.28;102.93;;;;;;;;;;5066684;28;20043;-57
2024/02/23 13:40:17;;;;;;;100.97;95.93;;;;;;;;;;5064871;28;20657;-60
2024/02/23 13:42:45;;;;;;;119.15;113.25;;;;;;;;;;5070139;28;20618;-60
2024/02/23 13:45:13;;;;;;;133.18;126.32;;;;;;;;;;5066382;28;20168;-61
2024/02/23 13:47:38;;;;;;;125.88;119.68;;;;;;;;;;5067223;28;20107;-56
2024/02/23 13:50:05;;;;;;;125.35;119.15;;;;;;;;;;5065685;28;20170;-61
2024/02/23 13:52:31;;;;;;;116.28;110.50;;;;;;;;;;5066592;28;20044;-62
2024/02/23 13:54:56;;;;;;;42.58;40.35;;;;;;;;;;5051313;28;20021;-56
2024/02/23 13:57:22;;;;;;;83.57;78.93;;;;;;;;;;5068311;28;20036;-56
2024/02/23 13:59:47;;;;;;;47.97;45.25;;;;;;;;;;5065404;28;20029;-56
2024/02/23 14:02:13;;;;;;;49.65;46.97;;;;;;;;;;5067186;28;20602;-56
2024/02/23 14:04:38;;;;;;;48.13;45.67;;;;;;;;;;5066879;28;20029;-61
2024/02/23 14:07:04;;;;;;;59.35;56.33;;;;;;;;;;5064676;28;20055;-56